Grand Rapids, MI (49501)

10:47 AM EDT on August 25, 2016 (GMT -0400)
WXGR.NET | | Change Station

Elev 756 ft 42.96 °N, 85.63 °W | Updated 10 seconds ago

Mostly Cloudy
Mostly Cloudy
74.7 °F
Feels Like 72 °F
N
0.0
Wind Variable Wind from West
Gusts 0.0 mph

Today
High -- | Low -- °F
--% Chance of Precip.
Yesterday
High -- | Low -- °F
Precip. -- in
Pressure 29.97 in
Visibility 10.0 miles
Clouds Few 900 ft
Scattered Clouds 1500 ft
Mostly Cloudy 18000 ft
Heat Index 72 °F
Dew Point 74 °F
Humidity 98%
Rainfall 0.83 in
Snow Depth Not available.
7:00 AM 8:28 PM
Last Quarter, 45% visible
SPECI KGRR 251440Z 24010KT 10SM FEW009 SCT015 BKN180 24/21 A2997 RMK AO2 T02440211
Pressure 29.97 in
Visibility 10.0 miles
Clouds Few 900 ft
Scattered Clouds 1500 ft
Mostly Cloudy 18000 ft
Heat Index 72 °F
Dew Point 74 °F
Humidity 98%
Rainfall 0.83 in
Snow Depth Not available.
7:00 AM 8:28 PM
Last Quarter, 45% visible
SPECI KGRR 251440Z 24010KT 10SM FEW009 SCT015 BKN180 24/21 A2997 RMK AO2 T02440211

10-Day Weather Forecast

Almanac

Astronomy

Aug. 25, 2016 Rise Set
Actual Time
Civil Twilight
Nautical Twilight
Astronomical Twilight
Moon
Length of Visible Light
Length of Day
Tomorrow will be .
, % of the Moon is Illuminated

Today's Extremes

State Highs State Lows

Community

WunderPhotos

Upload Photos

1,934,850 photos uploaded!

WunderBlog® & News

Nearby

Air Quality

  Air Quality AQ Index Pollutant
Not available.

Snow Depth

Station Depth Elevation

Earthquake Activity

City Distance Mag. Time & Date
Minimum magnitude displayed is 2.5.

Coastal Water Temperatures

Place Temperature

Stations

Nearby Weather Stations

Station Location Temp. Windchill Dew Point Humidity Wind Precip. Elev Updated Type
                   

Watches & Warnings

There are currently no watches in effect.